createdAt,value
2019-05-20T00:01:26.589Z,14.70
2019-05-20T00:03:54.146Z,14.70
2019-05-20T00:06:21.817Z,14.70
2019-05-20T00:08:49.929Z,14.80
2019-05-20T00:11:17.822Z,14.80
2019-05-20T00:13:45.431Z,14.80
2019-05-20T00:16:13.257Z,14.80
2019-05-20T00:18:40.802Z,14.80
2019-05-20T00:21:08.479Z,14.80
2019-05-20T00:23:36.087Z,14.90
2019-05-20T00:26:03.773Z,15.00
2019-05-20T00:28:31.268Z,15.00
2019-05-20T00:30:58.911Z,15.00
2019-05-20T00:33:26.470Z,15.10
2019-05-20T00:35:54.067Z,15.00
2019-05-20T00:38:21.691Z,15.00
2019-05-20T00:40:49.268Z,15.10
2019-05-20T00:43:23.061Z,15.10
2019-05-20T00:45:50.549Z,15.20
2019-05-20T00:48:18.087Z,15.20
2019-05-20T00:50:45.699Z,15.10
2019-05-20T00:53:13.291Z,14.90
2019-05-20T00:55:41.062Z,14.90
2019-05-20T00:58:08.673Z,14.90
2019-05-20T01:00:36.854Z,14.90
2019-05-20T01:03:04.494Z,14.90
2019-05-20T01:05:32.202Z,14.80
2019-05-20T01:07:59.862Z,14.80
2019-05-20T01:10:27.403Z,14.70
2019-05-20T01:12:55.035Z,14.70
2019-05-20T01:15:22.643Z,14.60
2019-05-20T01:17:50.222Z,14.60
2019-05-20T01:20:17.996Z,14.70
2019-05-20T01:22:45.583Z,14.70
2019-05-20T01:25:13.316Z,14.80
2019-05-20T01:27:40.909Z,14.70
2019-05-20T01:30:09.949Z,14.60
2019-05-20T01:32:37.579Z,14.60
2019-05-20T01:35:05.311Z,14.40
2019-05-20T01:37:32.973Z,14.30
2019-05-20T01:40:00.604Z,14.30
2019-05-20T01:42:28.184Z,14.30
2019-05-20T01:44:55.755Z,14.40
2019-05-20T01:47:23.356Z,14.40
2019-05-20T01:49:50.945Z,14.40
2019-05-20T01:52:18.465Z,14.30
2019-05-20T01:54:46.126Z,14.30
2019-05-20T01:57:13.759Z,14.30
2019-05-20T01:59:41.367Z,14.20
2019-05-20T02:02:09.316Z,14.10
2019-05-20T02:04:36.859Z,14.20
2019-05-20T02:07:04.802Z,14.20
2019-05-20T02:09:32.378Z,14.20
2019-05-20T02:12:00.028Z,14.30
2019-05-20T02:14:30.017Z,14.40
2019-05-20T02:16:57.624Z,14.40
2019-05-20T02:19:25.631Z,14.50
2019-05-20T02:21:53.229Z,14.50
2019-05-20T02:24:20.788Z,14.50
2019-05-20T02:26:48.395Z,14.50
2019-05-20T02:29:16.011Z,14.50
2019-05-20T02:31:43.559Z,14.50
2019-05-20T02:34:11.127Z,14.50
2019-05-20T02:36:38.754Z,14.50
2019-05-20T02:39:06.379Z,14.60
2019-05-20T02:41:34.249Z,14.60
2019-05-20T02:44:01.920Z,14.50
2019-05-20T02:46:29.497Z,14.60
2019-05-20T02:48:57.052Z,14.60
2019-05-20T02:51:30.494Z,14.60
2019-05-20T02:53:59.319Z,14.60
2019-05-20T02:56:26.932Z,14.70
2019-05-20T02:58:54.568Z,14.70
2019-05-20T03:01:22.277Z,14.80
2019-05-20T03:04:07.971Z,14.90
2019-05-20T03:06:19.118Z,14.90
2019-05-20T03:08:46.736Z,14.90
2019-05-20T03:11:14.321Z,14.90
2019-05-20T03:13:41.960Z,14.90
2019-05-20T03:16:09.602Z,14.90
2019-05-20T03:18:37.184Z,14.90
2019-05-20T03:21:04.750Z,14.80
2019-05-20T03:23:32.369Z,14.80
2019-05-20T03:25:59.898Z,14.80
2019-05-20T03:28:27.697Z,14.70
2019-05-20T03:30:55.349Z,14.70
2019-05-20T03:33:22.880Z,14.70
2019-05-20T03:35:50.633Z,14.60
2019-05-20T03:38:18.208Z,14.60
2019-05-20T03:40:45.807Z,14.60
2019-05-20T03:43:13.311Z,14.50
2019-05-20T03:45:40.868Z,14.50
2019-05-20T03:48:08.409Z,14.40
2019-05-20T03:50:35.965Z,14.40
2019-05-20T03:53:03.584Z,14.40
2019-05-20T03:55:31.082Z,14.30
2019-05-20T03:57:58.642Z,14.30
2019-05-20T04:00:43.693Z,14.20
2019-05-20T04:03:11.425Z,14.10
2019-05-20T04:05:39.186Z,14.20
2019-05-20T04:08:06.759Z,14.30
2019-05-20T04:10:34.386Z,14.30
2019-05-20T04:13:01.921Z,14.30
2019-05-20T04:15:29.491Z,14.40
2019-05-20T04:17:57.222Z,14.30
2019-05-20T04:20:24.842Z,14.30
2019-05-20T04:22:52.364Z,14.30
2019-05-20T04:25:20.093Z,14.30
2019-05-20T04:27:47.640Z,14.40
2019-05-20T04:30:18.849Z,14.40
2019-05-20T04:32:45.216Z,14.40
2019-05-20T04:35:22.239Z,14.50
2019-05-20T04:37:42.763Z,14.30
2019-05-20T04:40:11.396Z,14.30
2019-05-20T04:42:39.030Z,14.40
2019-05-20T04:45:07.599Z,14.40
2019-05-20T04:47:35.550Z,14.50
2019-05-20T04:50:03.534Z,14.60
2019-05-20T04:52:31.020Z,14.60
2019-05-20T04:54:58.625Z,14.50
2019-05-20T04:57:26.192Z,14.50
2019-05-20T04:59:53.771Z,14.60
2019-05-20T05:02:21.343Z,14.60
2019-05-20T05:04:48.860Z,14.60
2019-05-20T05:07:16.379Z,14.60
2019-05-20T05:09:43.971Z,14.60
2019-05-20T05:12:12.654Z,14.60
2019-05-20T05:14:40.308Z,14.60
2019-05-20T05:17:07.789Z,14.70
2019-05-20T05:19:35.641Z,14.80
2019-05-20T05:22:03.387Z,14.70
2019-05-20T05:24:30.917Z,14.80
2019-05-20T05:26:58.548Z,14.60
2019-05-20T05:29:26.195Z,14.60
2019-05-20T05:31:53.857Z,14.60
2019-05-20T05:34:21.476Z,14.70
2019-05-20T05:36:49.044Z,14.60
2019-05-20T05:39:16.579Z,14.50
2019-05-20T05:41:44.773Z,14.50
2019-05-20T05:44:12.539Z,14.50
2019-05-20T05:46:40.152Z,14.40
2019-05-20T05:49:07.795Z,14.30
2019-05-20T05:51:35.396Z,14.30
2019-05-20T05:54:03.085Z,14.40
2019-05-20T05:56:30.610Z,14.40
2019-05-20T05:58:58.256Z,14.50
2019-05-20T06:01:25.823Z,14.50
2019-05-20T06:03:53.357Z,14.60
2019-05-20T06:06:20.968Z,14.60
2019-05-20T06:08:48.618Z,14.50
2019-05-20T06:11:16.182Z,14.60
2019-05-20T06:13:43.739Z,14.80
2019-05-20T06:16:11.740Z,14.80
2019-05-20T06:18:39.290Z,14.80
2019-05-20T06:21:06.911Z,14.80
2019-05-20T06:23:34.504Z,14.80
2019-05-20T06:26:02.247Z,14.80
2019-05-20T06:28:29.731Z,14.80
2019-05-20T06:30:57.465Z,14.90
2019-05-20T06:33:25.096Z,14.90
2019-05-20T06:35:52.877Z,15.00
2019-05-20T06:38:42.140Z,15.00
2019-05-20T06:41:09.705Z,15.10
2019-05-20T06:43:37.296Z,15.10
2019-05-20T06:46:04.990Z,15.10
2019-05-20T06:48:32.735Z,15.10
2019-05-20T06:51:00.445Z,15.20
2019-05-20T06:53:28.179Z,15.20
2019-05-20T06:55:55.936Z,15.20
2019-05-20T06:58:23.523Z,15.20
2019-05-20T07:00:51.218Z,15.20
2019-05-20T07:03:19.191Z,15.10
2019-05-20T07:05:47.011Z,15.10
2019-05-20T07:08:14.760Z,15.10
2019-05-20T07:10:43.382Z,15.20
2019-05-20T07:13:11.351Z,15.30
2019-05-20T07:15:39.107Z,15.30
2019-05-20T07:18:10.362Z,15.40
2019-05-20T07:20:38.190Z,15.40
2019-05-20T07:23:05.773Z,15.60
2019-05-20T07:25:33.589Z,15.70
2019-05-20T07:28:01.318Z,15.70
2019-05-20T07:30:29.181Z,15.80
2019-05-20T07:34:06.728Z,15.80
2019-05-20T07:37:50.776Z,15.90
2019-05-20T07:40:16.146Z,15.90
2019-05-20T07:42:59.879Z,15.80
2019-05-20T07:45:54.309Z,15.80
2019-05-20T07:48:52.395Z,15.70
2019-05-20T07:52:02.156Z,15.80
2019-05-20T08:02:13.370Z,15.70
2019-05-20T08:05:15.839Z,15.70
2019-05-20T08:07:52.501Z,15.70
2019-05-20T08:18:01.386Z,16.00
2019-05-20T08:30:49.946Z,16.10
2019-05-20T08:34:22.375Z,16.20
2019-05-20T08:49:34.040Z,16.60
2019-05-20T08:52:10.710Z,16.60
2019-05-20T08:55:34.130Z,16.60
2019-05-20T08:58:07.114Z,16.60
2019-05-20T09:01:09.433Z,16.60
2019-05-20T09:03:53.387Z,16.60
2019-05-20T09:06:25.555Z,16.70
2019-05-20T09:08:58.501Z,16.90
2019-05-20T09:11:27.268Z,17.00
2019-05-20T09:14:01.161Z,17.20
2019-05-20T09:20:58.082Z,17.40
2019-05-20T09:26:49.086Z,17.30
2019-05-20T09:30:03.785Z,17.40
2019-05-20T09:32:43.398Z,17.30
2019-05-20T09:35:11.384Z,17.20
2019-05-20T09:37:44.809Z,17.20
2019-05-20T09:40:31.005Z,17.20
2019-05-20T09:42:59.688Z,17.20
2019-05-20T09:45:30.653Z,17.10
2019-05-20T09:48:08.560Z,17.10
2019-05-20T09:50:39.628Z,17.20
2019-05-20T09:53:24.294Z,17.10
2019-05-20T10:03:35.157Z,17.00
2019-05-20T10:07:10.276Z,16.90
2019-05-20T10:10:31.159Z,16.80
2019-05-20T10:13:03.008Z,16.90
2019-05-20T10:15:45.236Z,16.70
2019-05-20T10:18:36.767Z,16.60
2019-05-20T10:21:00.378Z,16.50
2019-05-20T10:23:35.132Z,16.40
2019-05-20T10:26:19.652Z,16.30
2019-05-20T10:28:47.714Z,16.20
2019-05-20T10:31:15.861Z,16.30
2019-05-20T10:33:45.388Z,16.30
2019-05-20T10:36:13.218Z,16.30
2019-05-20T10:38:56.830Z,16.40
2019-05-20T10:41:10.843Z,16.20
2019-05-20T10:43:38.635Z,16.10
2019-05-20T10:46:06.460Z,16.30
2019-05-20T10:48:44.532Z,16.20
2019-05-20T10:51:12.180Z,16.30
2019-05-20T10:53:43.202Z,16.30
2019-05-20T10:56:11.125Z,16.20
2019-05-20T10:58:39.140Z,16.20
2019-05-20T11:01:06.801Z,16.10
2019-05-20T11:03:34.611Z,16.10
2019-05-20T11:06:02.488Z,16.10
2019-05-20T11:08:33.252Z,16.10
2019-05-20T11:11:04.111Z,16.10
2019-05-20T11:13:35.470Z,16.00
2019-05-20T11:16:03.350Z,15.90
2019-05-20T11:18:31.294Z,15.90
2019-05-20T11:20:59.021Z,16.00
2019-05-20T11:23:26.698Z,16.00
2019-05-20T11:25:54.328Z,16.00
2019-05-20T11:28:23.051Z,16.10
2019-05-20T11:30:50.723Z,16.10
2019-05-20T11:33:18.362Z,16.10
2019-05-20T11:35:46.249Z,16.10
2019-05-20T11:38:13.855Z,15.90
2019-05-20T11:52:35.657Z,16.00
2019-05-20T11:59:44.875Z,16.00
2019-05-20T12:16:57.913Z,16.10
2019-05-20T12:20:06.919Z,16.20
2019-05-20T12:22:41.359Z,16.20
2019-05-20T12:25:16.388Z,16.30
2019-05-20T12:34:54.448Z,16.40
2019-05-20T12:53:50.332Z,16.40
2019-05-20T12:57:32.227Z,16.40
2019-05-20T13:00:30.937Z,16.50
2019-05-20T13:06:20.479Z,16.40
2019-05-20T13:08:51.002Z,16.60
2019-05-20T13:11:28.351Z,16.60
2019-05-20T13:14:01.613Z,16.70
2019-05-20T13:16:36.634Z,16.60
2019-05-20T13:19:04.916Z,16.60
2019-05-20T13:21:33.901Z,16.80
2019-05-20T13:24:11.485Z,16.90
2019-05-20T13:26:44.600Z,16.90
2019-05-20T13:29:37.761Z,17.00
2019-05-20T13:32:11.535Z,16.90
2019-05-20T13:35:16.118Z,16.80
2019-05-20T13:38:03.476Z,16.90
2019-05-20T13:57:46.620Z,17.10
2019-05-20T14:00:28.877Z,17.20
2019-05-20T14:03:37.959Z,17.30
2019-05-20T14:06:00.013Z,17.40
2019-05-20T14:09:02.312Z,17.40
2019-05-20T14:11:34.732Z,17.40
2019-05-20T14:14:59.978Z,17.40
2019-05-20T14:17:40.816Z,17.30
2019-05-20T14:20:23.659Z,17.30
2019-05-20T14:22:56.289Z,17.40
2019-05-20T14:28:32.549Z,17.30
2019-05-20T14:31:11.705Z,17.30
2019-05-20T14:33:40.624Z,17.30
2019-05-20T14:36:38.572Z,17.40
2019-05-20T14:39:04.741Z,17.20
2019-05-20T14:41:44.966Z,17.10
2019-05-20T14:44:33.560Z,17.10
2019-05-20T14:47:57.148Z,17.10
2019-05-20T14:55:41.458Z,17.30
2019-05-20T14:58:13.415Z,17.30
2019-05-20T15:04:58.816Z,17.30
2019-05-20T15:07:43.080Z,17.30
2019-05-20T15:10:45.923Z,17.30
2019-05-20T15:13:45.465Z,17.30
2019-05-20T15:16:39.195Z,17.20
2019-05-20T15:23:28.378Z,17.20
2019-05-20T15:26:19.482Z,17.40
2019-05-20T15:28:52.597Z,17.50
2019-05-20T15:31:24.749Z,17.50
2019-05-20T15:33:57.809Z,17.40
2019-05-20T15:36:28.788Z,17.30
2019-05-20T15:39:25.335Z,17.30
2019-05-20T15:45:25.937Z,17.40
2019-05-20T15:48:15.855Z,17.40
2019-05-20T15:51:08.477Z,17.50
2019-05-20T15:53:38.740Z,17.50
2019-05-20T15:56:16.706Z,17.40
2019-05-20T15:59:03.400Z,17.30
2019-05-20T16:01:54.457Z,17.20
2019-05-20T16:04:26.361Z,17.10
2019-05-20T16:07:14.639Z,17.00
2019-05-20T16:10:06.910Z,16.80
2019-05-20T16:12:44.820Z,16.80
2019-05-20T16:15:19.072Z,16.70
2019-05-20T16:17:58.578Z,16.60
2019-05-20T16:29:22.003Z,16.60
2019-05-20T16:32:22.899Z,16.60
2019-05-20T17:00:29.846Z,16.60
2019-05-20T17:07:29.710Z,16.60
2019-05-20T17:17:45.683Z,16.60
2019-05-20T17:20:36.566Z,16.40
2019-05-20T17:23:12.248Z,16.50
2019-05-20T17:26:16.944Z,16.40
2019-05-20T17:29:14.735Z,16.40
2019-05-20T17:32:01.248Z,16.30
2019-05-20T17:34:29.408Z,16.40
2019-05-20T17:36:59.398Z,16.50
2019-05-20T17:39:32.331Z,16.50
2019-05-20T17:42:10.730Z,16.40
2019-05-20T17:44:54.649Z,16.30
2019-05-20T17:47:33.514Z,16.30
2019-05-20T17:50:11.065Z,16.30
2019-05-20T17:52:41.811Z,16.20
2019-05-20T17:55:36.303Z,16.30
2019-05-20T17:58:19.178Z,16.20
2019-05-20T18:05:21.639Z,16.00
2019-05-20T18:15:03.279Z,15.90
2019-05-20T18:17:36.070Z,15.90
2019-05-20T18:23:06.914Z,15.80
2019-05-20T18:25:45.397Z,15.80
2019-05-20T18:28:53.642Z,15.80
2019-05-20T18:32:10.770Z,15.60
2019-05-20T18:34:49.553Z,15.50
2019-05-20T18:37:17.537Z,15.40
2019-05-20T18:39:45.394Z,15.40
2019-05-20T18:42:13.031Z,15.30
2019-05-20T18:44:40.704Z,15.40
2019-05-20T18:47:08.537Z,15.40
2019-05-20T18:49:36.157Z,15.30
2019-05-20T18:52:03.696Z,15.20
2019-05-20T18:54:31.599Z,15.20
2019-05-20T18:56:59.271Z,15.20
2019-05-20T18:59:26.899Z,15.10
2019-05-20T19:02:05.507Z,15.10
2019-05-20T19:04:49.560Z,15.10
2019-05-20T19:07:17.185Z,15.10
2019-05-20T19:09:47.981Z,15.10
2019-05-20T19:12:15.789Z,15.10
2019-05-20T19:14:43.845Z,15.20
2019-05-20T19:17:11.469Z,15.20
2019-05-20T19:19:39.235Z,15.20
2019-05-20T19:22:06.949Z,15.20
2019-05-20T19:24:34.581Z,15.30
2019-05-20T19:27:04.075Z,15.30
2019-05-20T19:29:36.881Z,15.30
2019-05-20T19:32:04.892Z,15.30
2019-05-20T19:34:33.511Z,15.30
2019-05-20T19:37:01.161Z,15.30
2019-05-20T19:39:28.795Z,15.40
2019-05-20T19:42:02.925Z,15.40
2019-05-20T19:44:31.640Z,15.40
2019-05-20T19:47:02.867Z,15.40
2019-05-20T19:49:31.255Z,15.40
2019-05-20T19:51:58.942Z,15.40
2019-05-20T19:54:34.896Z,15.30
2019-05-20T19:57:05.295Z,15.30
2019-05-20T19:59:34.194Z,15.20
2019-05-20T20:02:16.369Z,15.20
2019-05-20T20:04:32.397Z,15.10
2019-05-20T20:07:00.112Z,15.00
2019-05-20T20:09:28.341Z,15.00
2019-05-20T20:11:57.226Z,15.00
2019-05-20T20:14:26.600Z,14.90
2019-05-20T20:16:54.342Z,14.80
2019-05-20T20:19:22.112Z,14.90
2019-05-20T20:21:50.472Z,14.90
2019-05-20T20:24:19.004Z,14.90
2019-05-20T20:26:46.600Z,14.80
2019-05-20T20:29:14.284Z,14.80
2019-05-20T20:31:41.982Z,14.80
2019-05-20T20:34:12.853Z,14.70
2019-05-20T20:36:40.796Z,14.70
2019-05-20T20:39:08.464Z,14.60
2019-05-20T20:41:36.085Z,14.60
2019-05-20T20:44:04.579Z,14.50
2019-05-20T20:46:32.413Z,14.50
2019-05-20T20:49:00.053Z,14.50
2019-05-20T20:51:27.628Z,14.60
2019-05-20T20:53:55.217Z,14.50
2019-05-20T20:56:25.504Z,14.40
2019-05-20T20:58:56.201Z,14.40
2019-05-20T21:01:25.052Z,14.30
2019-05-20T21:03:54.121Z,14.20
2019-05-20T21:06:21.630Z,14.20
2019-05-20T21:08:50.222Z,14.20
2019-05-20T21:11:17.991Z,14.20
2019-05-20T21:13:45.627Z,14.20
2019-05-20T21:16:13.798Z,14.30
2019-05-20T21:18:41.755Z,14.30
2019-05-20T21:21:09.392Z,14.30
2019-05-20T21:23:38.125Z,14.30
2019-05-20T21:26:05.724Z,14.20
2019-05-20T21:28:33.348Z,14.20
2019-05-20T21:31:00.882Z,14.20
2019-05-20T21:33:30.048Z,14.20
2019-05-20T21:35:57.851Z,14.20
2019-05-20T21:38:25.500Z,14.20
2019-05-20T21:40:53.014Z,14.20
2019-05-20T21:43:21.359Z,14.20
2019-05-20T21:45:48.931Z,14.20
2019-05-20T21:48:21.880Z,14.20
2019-05-20T21:50:49.873Z,14.20
2019-05-20T21:53:17.477Z,14.10
2019-05-20T21:55:45.463Z,14.10
2019-05-20T21:58:13.043Z,14.10
2019-05-20T22:00:47.326Z,14.10
2019-05-20T22:03:23.889Z,14.10
2019-05-20T22:05:47.552Z,14.10
2019-05-20T22:08:16.753Z,14.10
2019-05-20T22:10:47.065Z,14.00
2019-05-20T22:13:14.693Z,14.10
2019-05-20T22:15:42.248Z,14.10
2019-05-20T22:18:09.830Z,14.10
2019-05-20T22:20:37.397Z,14.10
2019-05-20T22:23:41.283Z,14.20
2019-05-20T22:26:08.869Z,14.20
2019-05-20T22:28:38.128Z,14.20
2019-05-20T22:31:05.772Z,14.20
2019-05-20T22:33:41.375Z,14.10
2019-05-20T22:36:02.721Z,14.00
2019-05-20T22:38:30.463Z,14.00
2019-05-20T22:40:58.039Z,14.00
2019-05-20T22:43:25.587Z,14.00
2019-05-20T22:45:53.454Z,14.00
2019-05-20T22:48:20.976Z,14.10
2019-05-20T22:50:48.968Z,14.10
2019-05-20T22:53:18.653Z,14.20
2019-05-20T22:55:46.279Z,14.20
2019-05-20T22:58:16.005Z,14.10
2019-05-20T23:00:43.541Z,14.10
2019-05-20T23:03:11.082Z,14.10
2019-05-20T23:05:39.803Z,13.90
2019-05-20T23:08:07.423Z,13.90
2019-05-20T23:10:44.568Z,13.90
2019-05-20T23:13:12.972Z,13.90
2019-05-20T23:15:41.088Z,13.90
2019-05-20T23:18:09.298Z,13.90
2019-05-20T23:20:38.817Z,13.90
2019-05-20T23:23:07.099Z,13.90
2019-05-20T23:25:34.657Z,14.00
2019-05-20T23:28:02.343Z,13.90
2019-05-20T23:30:29.913Z,13.90
2019-05-20T23:32:57.485Z,14.00
2019-05-20T23:35:25.092Z,14.10
2019-05-20T23:37:52.635Z,14.10
2019-05-20T23:40:20.240Z,14.20
2019-05-20T23:42:48.055Z,14.20
2019-05-20T23:45:15.674Z,14.30
2019-05-20T23:47:43.244Z,14.30
2019-05-20T23:50:10.791Z,14.20
2019-05-20T23:52:38.413Z,14.20
2019-05-20T23:55:06.146Z,14.20
2019-05-20T23:57:33.732Z,14.20
